x

Western Prince William Sound (46081) Wave Buoy

9:50pm - Wed 1st Apr 2015 All times are UTC.

  • Sig Wave height 1.3ft
  • Peak Period 3s
  • Average Period 3s
  • Wind
    13mph, 18mph gusts
  • Sea Temp 42°f
  • Air Temp 39°f
  • Sea Pressure 1012.4mb

More Historic Weather Station data

Upgrade to MSW Pro to gain access to the past 30 days of data for over 8000 Wavebouys and Weather Stations around the globe.

Join Pro

Comparision Forecast

View Surf forecast
   
Wed 04/01 9:50pm 1.3ft 3s 3s 13 18 mph 1012.4mb 42f 39f
8:50pm 0.7ft  -  3s 2 4 mph 1012.2mb 42f 36f
7:50pm 1ft 2s 3s 13 18 mph 1011.5mb 42f 38f
6:50pm 1.6ft 3s 3s 16 20 mph 1010.7mb 42f 39f
5:50pm 2.5ft 3s 3s 18 22 mph 1010.1mb 42f 39f
4:50pm 1.6ft 3s 3s 13 18 mph 1009.7mb 42f 39f
3:50pm 1.6ft 3s 3s 9 25 mph 1009.6mb 42f 37f
2:50pm 1.3ft 3s 3s 9 16 mph 1009.6mb 42f 39f
1:50pm 1.3ft 3s 3s 16 20 mph 1009.2mb 42f 38f
12:50pm 1ft 3s 3s 16 18 mph 1009.1mb 41f 38f
11:50am 0.7ft  -  3s 13 16 mph 1008.9mb 42f 39f
10:50am 0.3ft  -  3s 9 11 mph 1008.8mb 42f 39f
9:50am 0.3ft  -  2s 4 7 mph 1008.6mb 42f 39f
8:50am 0.3ft  -  2s 4
mph
1008.2mb 42f 39f
7:50am 0.7ft  -  2s 4 7 mph 1008mb 42f 39f
6:50am 0.7ft  -  2s 11 13 mph 1007.6mb 42f 40f
5:50am 0.7ft  -  2s 11 13 mph 1007.3mb 42f 40f
4:50am 0.3ft  -  2s 11 13 mph 1006.9mb 42f 40f
3:50am 0.7ft  -  3s 11
mph
1006.6mb 42f 40f
2:50am 1ft 3s 3s 13 16 mph 1006.2mb 42f 39f
1:50am 1ft 3s 3s 11 16 mph 1006mb 42f 39f
12:50am 0.3ft  -  3s 13 16 mph 1005.7mb 42f 40f
Tue 03/31 11:50pm 0.3ft  -  2s 7 9 mph 1005.4mb 42f 39f
10:50pm 0.3ft  -  2s 4
mph
1004.9mb 42f 40f
9:50pm  -   -  3s 2 4 mph 1004.3mb 42f 41f
8:50pm  -   -  3s 4
mph
1003.6mb 42f 40f
7:50pm  -   -  3s 4 7 mph 1003mb 42f 40f
6:50pm  -   -  3s 7
mph
1002.5mb 42f 39f
5:50pm 0.3ft  -  2s 4
mph
1001.9mb 42f 39f
4:50pm 0.3ft  -  2s 7 9 mph 1001.4mb 42f 39f
3:50pm  -   -  2s 7 11 mph 1000.9mb 42f 41f
2:50pm 0.3ft  -  2s 4 7 mph 1000.6mb 41f 39f
1:50pm  -   -  2s 7 11 mph 1000.5mb 41f 39f
12:50pm  -   -  2s 4 7 mph 1000.5mb 42f 38f
11:50am  -   -  3s 9 11 mph 1000.1mb 41f 37f
10:50am  -   -  4s 4
mph
1000.4mb 41f 37f
9:50am  -   -  3s 4
mph
1000.3mb 41f 37f
8:50am 0.3ft  -  4s 4 7 mph 1000.3mb 42f 38f
7:50am  -   -  3s 4 7 mph 1000.5mb 42f 37f
6:50am  -   -  3s 4 7 mph 1001.1mb 42f 38f
5:50am  -   -  3s 4 7 mph 1001.5mb 42f 38f
4:50am  -   -  3s 9
mph
1001.7mb 42f 39f
3:50am 0.3ft  -  4s 11
mph
1002mb 42f 39f
2:50am  -   -  2s 11 13 mph 1002.6mb 42f 39f
1:50am 0.3ft  -  2s 11 13 mph 1003.2mb 42f 39f
12:50am 0.3ft  -  2s 13
mph
1003.7mb 42f 38f
Mon 03/30 11:50pm 0.3ft  -  2s 9 11 mph 1004.3mb 42f 38f
10:50pm 0.3ft  -  3s 11 13 mph 1004.5mb 42f 37f
9:50pm 0.3ft  -  2s 9
mph
1004.8mb 42f 37f
8:50pm 0.7ft  -  3s 9 11 mph 1004.9mb 42f 39f
7:50pm 1.3ft 3s 3s 11 13 mph 1004.9mb 42f 38f
6:50pm 1ft 3s 3s 13 16 mph 1004.9mb 42f 38f
5:50pm 1ft 3s 3s 13 18 mph 1004.8mb 42f 38f
4:50pm 1ft 2s 3s 9 11 mph 1004.7mb 42f 38f
3:50pm 1ft 3s 3s 7 11 mph 1004.8mb 42f 39f
2:50pm 1ft 2s 3s 16 20 mph 1004.5mb 42f 39f
1:50pm 1ft 3s 3s 13 16 mph 1004.7mb 42f 38f
12:50pm 1.3ft 3s 3s 16 18 mph 1004.9mb 42f 38f
11:50am 1.3ft 3s 3s 9 13 mph 1005.1mb 42f 38f
10:50am 1.3ft 3s 3s 7 11 mph 1004.8mb 42f 38f
9:50am 1.6ft 2s 3s 11 22 mph 1004.3mb 42f 39f
8:50am 1.3ft 3s 3s 7 13 mph 1003.7mb 42f 38f
7:50am 1.6ft 3s 3s 11 18 mph 1003.2mb 42f 38f
6:50am 2ft 3s 3s 18 22 mph 1002.5mb 42f 38f
5:50am 2ft 3s 3s 16 20 mph 1002.2mb 42f 38f
4:50am 2.5ft 3s 3s 13 18 mph 1001.7mb 42f 38f
3:50am 1.6ft 3s 3s 13 18 mph 1001.2mb 42f 38f
2:50am 1.6ft 3s 3s 13 16 mph 1000.7mb 42f 39f
1:50am 2ft 3s 3s 20 22 mph 1000.3mb 41f 40f
12:50am 2ft 3s 3s 18 25 mph 1000mb 41f 41f
Sun 03/29 11:50pm 2.5ft 3s 3s 25 31 mph 999mb 41f 42f
10:50pm 2ft 3s 3s 13 20 mph 998.9mb 41f 38f
9:50pm 1.6ft 3s 3s 16 20 mph 998.4mb 41f 38f
8:50pm 1.6ft 3s 3s 13 18 mph 997.8mb 42f 39f
7:50pm 2.5ft 3s 3s 13 22 mph 997.1mb 42f 40f
6:50pm 1.6ft 3s 3s 20 22 mph 996.3mb 42f 38f
5:50pm 1.3ft 3s 3s 13 18 mph 996.2mb 42f 39f
4:50pm 1ft 2s 2s 16 22 mph 995.6mb 42f 39f
3:50pm  -   -  3s 11 13 mph 995.2mb 42f 38f
2:50pm  -   -  3s 2 7 mph 995.3mb 42f 36f
1:50pm  -   -  3s 9 11 mph 995.4mb 42f 37f
12:50pm  -   -  3s 2 4 mph 995.4mb 42f 37f
11:50am 0.3ft  -  2s 7 9 mph 995.4mb 42f 38f
10:50am 0.3ft  -  2s 2
mph
995.4mb 42f 39f
9:50am 0.3ft  -  2s 4 9 mph 994.9mb 42f 38f
8:50am 0.3ft  -  2s 4 7 mph 994.7mb 42f 38f
7:50am  -   -  2s 4 7 mph 994.5mb 42f 39f
6:50am  -   -  2s 7
mph
994.6mb 42f 38f
5:50am  -   -  3s 7
mph
995mb 42f 39f
4:50am 0.3ft  -  2s 7
mph
995.4mb 42f 40f
3:50am 0.7ft  -  2s 9 11 mph 996mb 42f 41f
2:50am 0.3ft  -  2s 13 16 mph 996.9mb 42f 40f
1:50am 0.3ft  -  2s 11
mph
998.1mb 42f 40f
12:50am 0.3ft  -  3s 9 13 mph 999.5mb 42f 40f
Sat 03/28 11:50pm 0.7ft  -  2s 7 9 mph 1000.6mb 42f 42f
10:50pm 0.3ft  -  2s 11 13 mph 1001.6mb 42f 41f